sensor_id;sensor_type;location;lat;lon;timestamp;pressure;altitude;pressure_sealevel;temperature;humidity
8890;BME280;4481;43.406;24.454;2023-01-24T00:00:43;79603.69;;;-144.09;100.00
8890;BME280;4481;43.406;24.454;2023-01-24T00:03:10;79612.06;;;-144.09;100.00
8890;BME280;4481;43.406;24.454;2023-01-24T00:05:38;79612.06;;;-144.09;100.00
8890;BME280;4481;43.406;24.454;2023-01-24T00:08:04;79601.59;;;-144.09;100.00
8890;BME280;4481;43.406;24.454;2023-01-24T00:10:30;79620.41;;;-144.09;100.00
8890;BME280;4481;43.406;24.454;2023-01-24T00:12:57;79620.41;;;-144.09;100.00
8890;BME280;4481;43.406;24.454;2023-01-24T00:15:23;79626.69;;;-144.09;100.00
8890;BME280;4481;43.406;24.454;2023-01-24T00:17:49;79630.88;;;-144.09;100.00
8890;BME280;4481;43.406;24.454;2023-01-24T00:20:16;79637.16;;;-144.09;100.00
8890;BME280;4481;43.406;24.454;2023-01-24T00:22:42;79626.69;;;-144.09;100.00
8890;BME280;4481;43.406;24.454;2023-01-24T00:25:08;79635.06;;;-144.09;100.00
8890;BME280;4481;43.406;24.454;2023-01-24T00:27:34;79628.78;;;-144.09;100.00
8890;BME280;4481;43.406;24.454;2023-01-24T00:30:01;79637.16;;;-144.09;100.00
8890;BME280;4481;43.406;24.454;2023-01-24T00:32:27;79637.16;;;-144.09;100.00
8890;BME280;4481;43.406;24.454;2023-01-24T00:34:53;79635.06;;;-144.09;100.00
8890;BME280;4481;43.406;24.454;2023-01-24T00:37:19;79630.88;;;-144.09;100.00
8890;BME280;4481;43.406;24.454;2023-01-24T00:39:45;79637.16;;;-144.09;100.00
8890;BME280;4481;43.406;24.454;2023-01-24T00:42:12;79637.16;;;-144.09;100.00
8890;BME280;4481;43.406;24.454;2023-01-24T00:44:38;79637.16;;;-144.09;100.00
8890;BME280;4481;43.406;24.454;2023-01-24T00:47:04;79643.41;;;-144.09;100.00
8890;BME280;4481;43.406;24.454;2023-01-24T00:49:30;79624.59;;;-144.09;100.00
8890;BME280;4481;43.406;24.454;2023-01-24T00:51:56;79618.31;;;-144.09;100.00
8890;BME280;4481;43.406;24.454;2023-01-24T00:54:23;79624.59;;;-144.09;100.00
8890;BME280;4481;43.406;24.454;2023-01-24T00:56:49;79622.50;;;-144.09;100.00
8890;BME280;4481;43.406;24.454;2023-01-24T00:59:15;79628.78;;;-144.09;100.00
8890;BME280;4481;43.406;24.454;2023-01-24T01:01:41;79628.78;;;-144.09;100.00
8890;BME280;4481;43.406;24.454;2023-01-24T01:04:08;79616.22;;;-144.09;100.00
8890;BME280;4481;43.406;24.454;2023-01-24T01:06:34;79614.13;;;-144.09;100.00
8890;BME280;4481;43.406;24.454;2023-01-24T01:09:00;79616.22;;;-144.09;100.00
8890;BME280;4481;43.406;24.454;2023-01-24T01:11:27;79607.88;;;-144.09;100.00
8890;BME280;4481;43.406;24.454;2023-01-24T01:13:54;79603.69;;;-144.09;100.00
8890;BME280;4481;43.406;24.454;2023-01-24T01:16:21;79605.78;;;-144.09;100.00
8890;BME280;4481;43.406;24.454;2023-01-24T01:18:49;79603.69;;;-144.09;100.00
8890;BME280;4481;43.406;24.454;2023-01-24T01:21:17;79601.59;;;-144.09;100.00
8890;BME280;4481;43.406;24.454;2023-01-24T01:23:43;79612.06;;;-144.09;100.00
8890;BME280;4481;43.406;24.454;2023-01-24T01:26:13;79601.59;;;-144.09;100.00
8890;BME280;4481;43.406;24.454;2023-01-24T01:28:40;79609.97;;;-144.09;100.00
8890;BME280;4481;43.406;24.454;2023-01-24T01:31:07;79616.22;;;-144.09;100.00
8890;BME280;4481;43.406;24.454;2023-01-24T01:33:33;79620.41;;;-144.09;100.00
8890;BME280;4481;43.406;24.454;2023-01-24T01:35:59;79609.97;;;-144.09;100.00
8890;BME280;4481;43.406;24.454;2023-01-24T01:38:25;79614.13;;;-144.09;100.00
8890;BME280;4481;43.406;24.454;2023-01-24T01:40:53;79628.78;;;-144.09;100.00
8890;BME280;4481;43.406;24.454;2023-01-24T01:43:21;79637.16;;;-144.09;100.00
8890;BME280;4481;43.406;24.454;2023-01-24T01:45:50;79630.88;;;-144.09;100.00
8890;BME280;4481;43.406;24.454;2023-01-24T01:48:24;79637.16;;;-144.09;100.00
8890;BME280;4481;43.406;24.454;2023-01-24T01:51:00;79658.06;;;-144.09;100.00
8890;BME280;4481;43.406;24.454;2023-01-24T01:53:32;79655.97;;;-144.09;100.00
8890;BME280;4481;43.406;24.454;2023-01-24T01:56:02;79664.34;;;-144.09;100.00
8890;BME280;4481;43.406;24.454;2023-01-24T01:58:31;79653.88;;;-144.09;100.00
8890;BME280;4481;43.406;24.454;2023-01-24T02:00:59;79662.25;;;-144.09;100.00
8890;BME280;4481;43.406;24.454;2023-01-24T02:03:29;79674.78;;;-144.09;100.00
8890;BME280;4481;43.406;24.454;2023-01-24T02:06:05;79676.88;;;-144.09;100.00
8890;BME280;4481;43.406;24.454;2023-01-24T02:08:33;79674.78;;;-144.09;100.00
8890;BME280;4481;43.406;24.454;2023-01-24T02:11:00;79676.88;;;-144.09;100.00
8890;BME280;4481;43.406;24.454;2023-01-24T02:13:44;79691.53;;;-144.09;100.00
8890;BME280;4481;43.406;24.454;2023-01-24T02:16:13;79689.44;;;-144.09;100.00
8890;BME280;4481;43.406;24.454;2023-01-24T02:18:42;79685.25;;;-144.09;100.00
8890;BME280;4481;43.406;24.454;2023-01-24T02:21:10;79697.78;;;-144.09;100.00
8890;BME280;4481;43.406;24.454;2023-01-24T02:23:46;79683.16;;;-144.09;100.00
8890;BME280;4481;43.406;24.454;2023-01-24T02:26:17;79695.72;;;-144.09;100.00
8890;BME280;4481;43.406;24.454;2023-01-24T02:28:48;79693.63;;;-144.09;100.00
8890;BME280;4481;43.406;24.454;2023-01-24T02:31:16;79699.88;;;-144.09;100.00
8890;BME280;4481;43.406;24.454;2023-01-24T02:33:42;79691.53;;;-144.09;100.00
8890;BME280;4481;43.406;24.454;2023-01-24T02:36:19;79674.78;;;-144.09;100.00
8890;BME280;4481;43.406;24.454;2023-01-24T02:38:52;79695.72;;;-144.09;100.00
8890;BME280;4481;43.406;24.454;2023-01-24T02:41:24;79699.88;;;-144.09;100.00
8890;BME280;4481;43.406;24.454;2023-01-24T02:43:52;79701.97;;;-144.09;100.00
8890;BME280;4481;43.406;24.454;2023-01-24T02:46:20;79701.97;;;-144.09;100.00
8890;BME280;4481;43.406;24.454;2023-01-24T02:48:49;79704.06;;;-144.09;100.00
8890;BME280;4481;43.406;24.454;2023-01-24T02:51:16;79695.72;;;-144.09;100.00
8890;BME280;4481;43.406;24.454;2023-01-24T02:54:00;79691.53;;;-144.09;100.00
8890;BME280;4481;43.406;24.454;2023-01-24T02:56:27;79693.63;;;-144.09;100.00
8890;BME280;4481;43.406;24.454;2023-01-24T02:59:11;79714.53;;;-144.09;100.00
8890;BME280;4481;43.406;24.454;2023-01-24T03:01:37;79725.00;;;-144.09;100.00
8890;BME280;4481;43.406;24.454;2023-01-24T03:04:03;79714.53;;;-144.09;100.00
8890;BME280;4481;43.406;24.454;2023-01-24T03:06:29;79714.53;;;-144.09;100.00
8890;BME280;4481;43.406;24.454;2023-01-24T03:08:55;79729.16;;;-144.09;100.00
8890;BME280;4481;43.406;24.454;2023-01-24T03:11:22;79725.00;;;-144.09;100.00
8890;BME280;4481;43.406;24.454;2023-01-24T03:13:48;79727.09;;;-144.09;100.00
8890;BME280;4481;43.406;24.454;2023-01-24T03:16:33;79727.09;;;-144.09;100.00
8890;BME280;4481;43.406;24.454;2023-01-24T03:19:17;79745.91;;;-144.09;100.00
8890;BME280;4481;43.406;24.454;2023-01-24T03:22:01;79748.00;;;-144.09;100.00
8890;BME280;4481;43.406;24.454;2023-01-24T03:24:45;79733.34;;;-144.09;100.00
8890;BME280;4481;43.406;24.454;2023-01-24T03:27:29;79731.25;;;-144.09;100.00
8890;BME280;4481;43.406;24.454;2023-01-24T03:30:14;79745.91;;;-144.09;100.00
8890;BME280;4481;43.406;24.454;2023-01-24T03:32:58;79731.25;;;-144.09;100.00
8890;BME280;4481;43.406;24.454;2023-01-24T03:35:43;79733.34;;;-144.09;100.00
8890;BME280;4481;43.406;24.454;2023-01-24T03:38:20;79720.81;;;-144.09;100.00
8890;BME280;4481;43.406;24.454;2023-01-24T03:41:05;79725.00;;;-144.09;100.00
8890;BME280;4481;43.406;24.454;2023-01-24T03:43:31;79731.25;;;-144.09;100.00
8890;BME280;4481;43.406;24.454;2023-01-24T03:45:58;79725.00;;;-144.09;100.00
8890;BME280;4481;43.406;24.454;2023-01-24T03:48:25;79735.44;;;-144.09;100.00
8890;BME280;4481;43.406;24.454;2023-01-24T03:51:00;79733.34;;;-144.09;100.00
8890;BME280;4481;43.406;24.454;2023-01-24T03:53:43;79745.91;;;-144.09;100.00
8890;BME280;4481;43.406;24.454;2023-01-24T03:56:10;79754.28;;;-144.09;100.00
8890;BME280;4481;43.406;24.454;2023-01-24T03:58:36;79741.72;;;-144.09;100.00
8890;BME280;4481;43.406;24.454;2023-01-24T04:01:03;79727.09;;;-144.09;100.00
8890;BME280;4481;43.406;24.454;2023-01-24T04:03:29;79750.09;;;-144.09;100.00
8890;BME280;4481;43.406;24.454;2023-01-24T04:05:58;79758.44;;;-144.09;100.00
8890;BME280;4481;43.406;24.454;2023-01-24T04:08:24;79754.28;;;-144.09;100.00
8890;BME280;4481;43.406;24.454;2023-01-24T04:10:50;79741.72;;;-144.09;100.00
8890;BME280;4481;43.406;24.454;2023-01-24T04:13:16;79735.44;;;-144.09;100.00
8890;BME280;4481;43.406;24.454;2023-01-24T04:15:44;79735.44;;;-144.09;100.00
8890;BME280;4481;43.406;24.454;2023-01-24T04:18:11;79741.72;;;-144.09;100.00
8890;BME280;4481;43.406;24.454;2023-01-24T04:20:37;79729.16;;;-144.09;100.00
8890;BME280;4481;43.406;24.454;2023-01-24T04:23:05;79743.81;;;-144.09;100.00
8890;BME280;4481;43.406;24.454;2023-01-24T04:25:32;79743.81;;;-144.09;100.00
8890;BME280;4481;43.406;24.454;2023-01-24T04:27:58;79741.72;;;-144.09;100.00
8890;BME280;4481;43.406;24.454;2023-01-24T04:30:25;79733.34;;;-144.09;100.00
8890;BME280;4481;43.406;24.454;2023-01-24T04:32:51;79729.16;;;-144.09;100.00
8890;BME280;4481;43.406;24.454;2023-01-24T04:35:20;79725.00;;;-144.09;100.00
8890;BME280;4481;43.406;24.454;2023-01-24T04:37:47;79725.00;;;-144.09;100.00
8890;BME280;4481;43.406;24.454;2023-01-24T04:40:13;79731.25;;;-144.09;100.00
8890;BME280;4481;43.406;24.454;2023-01-24T04:42:40;79722.91;;;-144.09;100.00
8890;BME280;4481;43.406;24.454;2023-01-24T04:45:08;79727.09;;;-144.09;100.00
8890;BME280;4481;43.406;24.454;2023-01-24T04:47:34;79725.00;;;-144.09;100.00
8890;BME280;4481;43.406;24.454;2023-01-24T04:50:00;79727.09;;;-144.09;100.00
8890;BME280;4481;43.406;24.454;2023-01-24T04:52:27;79729.16;;;-144.09;100.00
8890;BME280;4481;43.406;24.454;2023-01-24T04:54:53;79733.34;;;-144.09;100.00
8890;BME280;4481;43.406;24.454;2023-01-24T04:57:19;79750.09;;;-144.09;100.00
8890;BME280;4481;43.406;24.454;2023-01-24T04:59:45;79754.28;;;-144.09;100.00
8890;BME280;4481;43.406;24.454;2023-01-24T05:02:11;79754.28;;;-144.09;100.00
8890;BME280;4481;43.406;24.454;2023-01-24T05:04:37;79758.44;;;-144.09;100.00
8890;BME280;4481;43.406;24.454;2023-01-24T05:07:04;79752.19;;;-144.09;100.00
8890;BME280;4481;43.406;24.454;2023-01-24T05:09:31;79752.19;;;-144.09;100.00
8890;BME280;4481;43.406;24.454;2023-01-24T05:11:58;79758.44;;;-144.09;100.00
8890;BME280;4481;43.406;24.454;2023-01-24T05:14:24;79758.44;;;-144.09;100.00
8890;BME280;4481;43.406;24.454;2023-01-24T05:16:50;79752.19;;;-144.09;100.00
8890;BME280;4481;43.406;24.454;2023-01-24T05:19:17;79750.09;;;-144.09;100.00
8890;BME280;4481;43.406;24.454;2023-01-24T05:21:43;79735.44;;;-144.09;100.00
8890;BME280;4481;43.406;24.454;2023-01-24T05:24:10;79745.91;;;-144.09;100.00
8890;BME280;4481;43.406;24.454;2023-01-24T05:26:36;79739.63;;;-144.09;100.00
8890;BME280;4481;43.406;24.454;2023-01-24T05:29:02;79743.81;;;-144.09;100.00
8890;BME280;4481;43.406;24.454;2023-01-24T05:31:29;79731.25;;;-144.09;100.00
8890;BME280;4481;43.406;24.454;2023-01-24T05:33:55;79727.09;;;-144.09;100.00
8890;BME280;4481;43.406;24.454;2023-01-24T05:36:22;79743.81;;;-144.09;100.00
8890;BME280;4481;43.406;24.454;2023-01-24T05:38:49;79737.53;;;-144.09;100.00
8890;BME280;4481;43.406;24.454;2023-01-24T05:41:17;79754.28;;;-144.09;100.00
8890;BME280;4481;43.406;24.454;2023-01-24T05:43:44;79775.19;;;-144.09;100.00
8890;BME280;4481;43.406;24.454;2023-01-24T05:46:13;79773.09;;;-144.09;100.00
8890;BME280;4481;43.406;24.454;2023-01-24T05:48:41;79781.47;;;-144.09;100.00
8890;BME280;4481;43.406;24.454;2023-01-24T05:51:09;79777.28;;;-144.09;100.00
8890;BME280;4481;43.406;24.454;2023-01-24T05:53:37;79789.81;;;-144.09;100.00
8890;BME280;4481;43.406;24.454;2023-01-24T05:56:05;79787.72;;;-144.09;100.00
8890;BME280;4481;43.406;24.454;2023-01-24T05:58:34;79787.72;;;-144.09;100.00
8890;BME280;4481;43.406;24.454;2023-01-24T06:01:05;79789.81;;;-144.09;100.00
8890;BME280;4481;43.406;24.454;2023-01-24T06:03:31;79781.47;;;-144.09;100.00
8890;BME280;4481;43.406;24.454;2023-01-24T06:05:58;79781.47;;;-144.09;100.00
8890;BME280;4481;43.406;24.454;2023-01-24T06:08:25;79762.63;;;-144.09;100.00
8890;BME280;4481;43.406;24.454;2023-01-24T06:10:51;79775.19;;;-144.09;100.00
8890;BME280;4481;43.406;24.454;2023-01-24T06:13:17;79787.72;;;-144.09;100.00
8890;BME280;4481;43.406;24.454;2023-01-24T06:15:43;79800.28;;;-144.09;100.00
8890;BME280;4481;43.406;24.454;2023-01-24T06:18:13;79775.19;;;-144.09;100.00
8890;BME280;4481;43.406;24.454;2023-01-24T06:20:41;79785.66;;;-144.09;100.00
8890;BME280;4481;43.406;24.454;2023-01-24T06:23:10;79791.91;;;-144.09;100.00
8890;BME280;4481;43.406;24.454;2023-01-24T06:25:43;79785.66;;;-144.09;100.00
8890;BME280;4481;43.406;24.454;2023-01-24T06:28:09;79781.47;;;-144.09;100.00
8890;BME280;4481;43.406;24.454;2023-01-24T06:30:37;79796.09;;;-144.09;100.00
8890;BME280;4481;43.406;24.454;2023-01-24T06:33:15;79804.47;;;-144.09;100.00
8890;BME280;4481;43.406;24.454;2023-01-24T06:36:00;79804.47;;;-144.09;100.00
8890;BME280;4481;43.406;24.454;2023-01-24T06:38:31;79800.28;;;-144.09;100.00
8890;BME280;4481;43.406;24.454;2023-01-24T06:40:59;79791.91;;;-144.09;100.00
8890;BME280;4481;43.406;24.454;2023-01-24T06:43:26;79804.47;;;-144.09;100.00
8890;BME280;4481;43.406;24.454;2023-01-24T06:45:53;79808.66;;;-144.09;100.00
8890;BME280;4481;43.406;24.454;2023-01-24T06:48:20;79812.84;;;-144.09;100.00
8890;BME280;4481;43.406;24.454;2023-01-24T06:50:47;79827.47;;;-144.09;100.00
8890;BME280;4481;43.406;24.454;2023-01-24T06:53:13;79829.56;;;-144.09;100.00
8890;BME280;4481;43.406;24.454;2023-01-24T06:55:43;79829.56;;;-144.09;100.00
8890;BME280;4481;43.406;24.454;2023-01-24T06:58:10;79817.00;;;-144.09;100.00
8890;BME280;4481;43.406;24.454;2023-01-24T07:00:36;79819.09;;;-144.09;100.00
8890;BME280;4481;43.406;24.454;2023-01-24T07:03:03;79821.19;;;-144.09;100.00
8890;BME280;4481;43.406;24.454;2023-01-24T07:05:33;79827.47;;;-144.09;100.00
8890;BME280;4481;43.406;24.454;2023-01-24T07:07:59;79835.84;;;-144.09;100.00
8890;BME280;4481;43.406;24.454;2023-01-24T07:10:26;79827.47;;;-144.09;100.00
8890;BME280;4481;43.406;24.454;2023-01-24T07:12:54;79844.22;;;-144.09;100.00
8890;BME280;4481;43.406;24.454;2023-01-24T07:15:20;79846.28;;;-144.09;100.00
8890;BME280;4481;43.406;24.454;2023-01-24T07:17:46;79867.22;;;-144.09;100.00
8890;BME280;4481;43.406;24.454;2023-01-24T07:20:13;79871.41;;;-144.09;100.00
8890;BME280;4481;43.406;24.454;2023-01-24T07:22:41;79886.03;;;-144.09;100.00
8890;BME280;4481;43.406;24.454;2023-01-24T07:25:12;79890.22;;;-144.09;100.00
8890;BME280;4481;43.406;24.454;2023-01-24T07:27:40;79888.13;;;-144.09;100.00
8890;BME280;4481;43.406;24.454;2023-01-24T07:30:07;79904.84;;;-144.09;100.00
8890;BME280;4481;43.406;24.454;2023-01-24T07:32:33;79913.22;;;-144.09;100.00
8890;BME280;4481;43.406;24.454;2023-01-24T07:35:00;79925.78;;;-144.09;100.00
8890;BME280;4481;43.406;24.454;2023-01-24T07:37:26;79921.59;;;-144.09;100.00
8890;BME280;4481;43.406;24.454;2023-01-24T07:39:52;79942.50;;;-144.09;100.00
8890;BME280;4481;43.406;24.454;2023-01-24T07:42:18;79936.22;;;-144.09;100.00
8890;BME280;4481;43.406;24.454;2023-01-24T07:44:45;79936.22;;;-144.09;100.00
8890;BME280;4481;43.406;24.454;2023-01-24T07:47:11;79948.78;;;-144.09;100.00
8890;BME280;4481;43.406;24.454;2023-01-24T07:49:37;79927.88;;;-144.09;100.00
8890;BME280;4481;43.406;24.454;2023-01-24T07:52:03;79927.88;;;-144.09;100.00
8890;BME280;4481;43.406;24.454;2023-01-24T07:54:29;79934.16;;;-144.09;100.00
8890;BME280;4481;43.406;24.454;2023-01-24T07:56:56;79932.06;;;-144.09;100.00
8890;BME280;4481;43.406;24.454;2023-01-24T07:59:22;79952.97;;;-144.09;100.00
8890;BME280;4481;43.406;24.454;2023-01-24T08:01:48;79938.31;;;-144.09;100.00
8890;BME280;4481;43.406;24.454;2023-01-24T08:04:15;79946.69;;;-144.09;100.00
8890;BME280;4481;43.406;24.454;2023-01-24T08:06:41;79940.41;;;-144.09;100.00
8890;BME280;4481;43.406;24.454;2023-01-24T08:09:27;79942.50;;;-144.09;100.00
8890;BME280;4481;43.406;24.454;2023-01-24T08:11:54;79934.16;;;-144.09;100.00
8890;BME280;4481;43.406;24.454;2023-01-24T08:14:21;79940.41;;;-144.09;100.00
8890;BME280;4481;43.406;24.454;2023-01-24T08:16:47;79942.50;;;-144.09;100.00
8890;BME280;4481;43.406;24.454;2023-01-24T08:19:14;79925.78;;;-144.09;100.00
8890;BME280;4481;43.406;24.454;2023-01-24T08:21:40;79934.16;;;-144.09;100.00
8890;BME280;4481;43.406;24.454;2023-01-24T08:24:06;79925.78;;;-144.09;100.00
8890;BME280;4481;43.406;24.454;2023-01-24T08:26:34;79927.88;;;-144.09;100.00
8890;BME280;4481;43.406;24.454;2023-01-24T08:29:00;79919.50;;;-144.09;100.00
8890;BME280;4481;43.406;24.454;2023-01-24T08:31:27;79923.69;;;-144.09;100.00
8890;BME280;4481;43.406;24.454;2023-01-24T08:33:53;79932.06;;;-144.09;100.00
8890;BME280;4481;43.406;24.454;2023-01-24T08:36:20;79917.41;;;-144.09;100.00
8890;BME280;4481;43.406;24.454;2023-01-24T08:38:46;79879.75;;;-144.09;100.00
8890;BME280;4481;43.406;24.454;2023-01-24T08:41:12;79881.84;;;-144.09;100.00
8890;BME280;4481;43.406;24.454;2023-01-24T08:43:38;79888.13;;;-144.09;100.00
8890;BME280;4481;43.406;24.454;2023-01-24T08:46:04;79904.84;;;-144.09;100.00
8890;BME280;4481;43.406;24.454;2023-01-24T08:48:31;79913.22;;;-144.09;100.00
8890;BME280;4481;43.406;24.454;2023-01-24T08:50:57;79888.13;;;-144.09;100.00
8890;BME280;4481;43.406;24.454;2023-01-24T08:53:23;79890.22;;;-144.09;100.00
8890;BME280;4481;43.406;24.454;2023-01-24T08:55:50;79894.41;;;-144.09;100.00
8890;BME280;4481;43.406;24.454;2023-01-24T08:58:17;79904.84;;;-144.09;100.00
8890;BME280;4481;43.406;24.454;2023-01-24T09:00:43;79904.84;;;-144.09;100.00
8890;BME280;4481;43.406;24.454;2023-01-24T09:03:15;79909.03;;;-144.09;100.00
8890;BME280;4481;43.406;24.454;2023-01-24T09:05:45;79919.50;;;-144.09;100.00
8890;BME280;4481;43.406;24.454;2023-01-24T09:08:11;79890.22;;;-144.09;100.00
8890;BME280;4481;43.406;24.454;2023-01-24T09:10:37;79890.22;;;-144.09;100.00
8890;BME280;4481;43.406;24.454;2023-01-24T09:13:04;79917.41;;;-144.09;100.00
8890;BME280;4481;43.406;24.454;2023-01-24T09:15:31;79892.31;;;-144.09;100.00
8890;BME280;4481;43.406;24.454;2023-01-24T09:17:59;79896.50;;;-144.09;100.00
8890;BME280;4481;43.406;24.454;2023-01-24T09:20:26;79890.22;;;-144.09;100.00
8890;BME280;4481;43.406;24.454;2023-01-24T09:22:52;79898.59;;;-144.09;100.00
8890;BME280;4481;43.406;24.454;2023-01-24T09:25:19;79877.66;;;-144.09;100.00
8890;BME280;4481;43.406;24.454;2023-01-24T09:27:52;79879.75;;;-144.09;100.00
8890;BME280;4481;43.406;24.454;2023-01-24T09:30:18;79883.94;;;-144.09;100.00
8890;BME280;4481;43.406;24.454;2023-01-24T09:32:46;79883.94;;;-144.09;100.00
8890;BME280;4481;43.406;24.454;2023-01-24T09:35:12;79881.84;;;-144.09;100.00
8890;BME280;4481;43.406;24.454;2023-01-24T09:37:38;79848.38;;;-144.09;100.00
8890;BME280;4481;43.406;24.454;2023-01-24T09:40:10;79850.47;;;-144.09;100.00
8890;BME280;4481;43.406;24.454;2023-01-24T09:42:51;79875.56;;;-144.09;100.00
8890;BME280;4481;43.406;24.454;2023-01-24T09:45:23;79867.22;;;-144.09;100.00
8890;BME280;4481;43.406;24.454;2023-01-24T09:47:52;79827.47;;;-144.09;100.00
8890;BME280;4481;43.406;24.454;2023-01-24T09:50:23;79808.66;;;-144.09;100.00
8890;BME280;4481;43.406;24.454;2023-01-24T09:52:54;79814.94;;;-144.09;100.00
8890;BME280;4481;43.406;24.454;2023-01-24T09:55:24;79827.47;;;-144.09;100.00
8890;BME280;4481;43.406;24.454;2023-01-24T09:57:56;79794.00;;;-144.09;100.00
8890;BME280;4481;43.406;24.454;2023-01-24T10:00:26;79771.00;;;-144.09;100.00
8890;BME280;4481;43.406;24.454;2023-01-24T10:02:55;79762.63;;;-144.09;100.00
8890;BME280;4481;43.406;24.454;2023-01-24T10:05:25;79819.09;;;-144.09;100.00
8890;BME280;4481;43.406;24.454;2023-01-24T10:08:05;79789.81;;;-144.09;100.00
8890;BME280;4481;43.406;24.454;2023-01-24T10:10:43;79779.38;;;-144.09;100.00
8890;BME280;4481;43.406;24.454;2023-01-24T10:16:13;79768.91;;;-144.09;100.00
8890;BME280;4481;43.406;24.454;2023-01-24T10:18:49;79781.47;;;-144.09;100.00
8890;BME280;4481;43.406;24.454;2023-01-24T10:21:41;79758.44;;;-144.09;100.00
8890;BME280;4481;43.406;24.454;2023-01-24T10:24:15;79752.19;;;-144.09;100.00
8890;BME280;4481;43.406;24.454;2023-01-24T10:26:48;79756.38;;;-144.09;100.00
8890;BME280;4481;43.406;24.454;2023-01-24T10:29:17;79748.00;;;-144.09;100.00
8890;BME280;4481;43.406;24.454;2023-01-24T10:31:50;79729.16;;;-144.09;100.00
8890;BME280;4481;43.406;24.454;2023-01-24T10:34:26;79720.81;;;-144.09;100.00
8890;BME280;4481;43.406;24.454;2023-01-24T10:36:56;79716.63;;;-144.09;100.00
8890;BME280;4481;43.406;24.454;2023-01-24T10:39:24;79693.63;;;-144.09;100.00
8890;BME280;4481;43.406;24.454;2023-01-24T10:41:53;79639.25;;;-144.09;100.00
8890;BME280;4481;43.406;24.454;2023-01-24T10:44:24;79658.06;;;-144.09;100.00
8890;BME280;4481;43.406;24.454;2023-01-24T10:47:15;79691.53;;;-144.09;100.00
8890;BME280;4481;43.406;24.454;2023-01-24T10:49:51;79710.34;;;-144.09;100.00
8890;BME280;4481;43.406;24.454;2023-01-24T10:52:20;79697.78;;;-144.09;100.00
8890;BME280;4481;43.406;24.454;2023-01-24T10:54:49;79664.34;;;-144.09;100.00
8890;BME280;4481;43.406;24.454;2023-01-24T10:57:26;79651.78;;;-144.09;100.00
8890;BME280;4481;43.406;24.454;2023-01-24T10:59:55;79666.44;;;-144.09;100.00
8890;BME280;4481;43.406;24.454;2023-01-24T11:02:23;79635.06;;;-144.09;100.00
8890;BME280;4481;43.406;24.454;2023-01-24T11:04:52;79635.06;;;-144.09;100.00
8890;BME280;4481;43.406;24.454;2023-01-24T11:07:28;79632.97;;;-144.09;100.00
8890;BME280;4481;43.406;24.454;2023-01-24T11:09:55;79639.25;;;-144.09;100.00
8890;BME280;4481;43.406;24.454;2023-01-24T11:12:24;79620.41;;;-144.09;100.00
8890;BME280;4481;43.406;24.454;2023-01-24T11:14:51;79626.69;;;-144.09;100.00
8890;BME280;4481;43.406;24.454;2023-01-24T11:17:32;79639.25;;;-144.09;100.00
8890;BME280;4481;43.406;24.454;2023-01-24T11:20:05;79622.50;;;-144.09;100.00
8890;BME280;4481;43.406;24.454;2023-01-24T11:22:41;79591.13;;;-144.09;100.00
8890;BME280;4481;43.406;24.454;2023-01-24T11:25:13;79599.50;;;-144.09;100.00
8890;BME280;4481;43.406;24.454;2023-01-24T11:27:46;79563.94;;;-144.09;100.00
8890;BME280;4481;43.406;24.454;2023-01-24T11:30:16;79551.41;;;-144.09;100.00
8890;BME280;4481;43.406;24.454;2023-01-24T11:32:48;79568.13;;;-144.09;100.00
8890;BME280;4481;43.406;24.454;2023-01-24T11:35:21;79574.41;;;-144.09;100.00
8890;BME280;4481;43.406;24.454;2023-01-24T11:38:18;79534.66;;;-144.09;100.00
8890;BME280;4481;43.406;24.454;2023-01-24T11:40:58;79582.78;;;-144.09;100.00
8890;BME280;4481;43.406;24.454;2023-01-24T11:46:44;79570.22;;;-144.09;100.00
8890;BME280;4481;43.406;24.454;2023-01-24T11:49:25;79584.88;;;-144.09;100.00
8890;BME280;4481;43.406;24.454;2023-01-24T11:52:01;79582.78;;;-144.09;100.00
8890;BME280;4481;43.406;24.454;2023-01-24T11:54:38;79545.13;;;-144.09;100.00
8890;BME280;4481;43.406;24.454;2023-01-24T11:57:17;79538.84;;;-144.09;100.00
8890;BME280;4481;43.406;24.454;2023-01-24T11:59:56;79570.22;;;-144.09;100.00
8890;BME280;4481;43.406;24.454;2023-01-24T12:02:33;79568.13;;;-144.09;100.00
8890;BME280;4481;43.406;24.454;2023-01-24T12:05:18;79586.94;;;-144.09;100.00
8890;BME280;4481;43.406;24.454;2023-01-24T12:07:57;79570.22;;;-144.09;100.00
8890;BME280;4481;43.406;24.454;2023-01-24T12:10:33;79586.94;;;-144.09;100.00
8890;BME280;4481;43.406;24.454;2023-01-24T12:13:08;79591.13;;;-144.09;100.00
8890;BME280;4481;43.406;24.454;2023-01-24T12:15:38;79614.13;;;-144.09;100.00
8890;BME280;4481;43.406;24.454;2023-01-24T12:18:24;79599.50;;;-144.09;100.00
8890;BME280;4481;43.406;24.454;2023-01-24T12:20:59;79593.22;;;-144.09;100.00
8890;BME280;4481;43.406;24.454;2023-01-24T12:23:32;79599.50;;;-144.09;100.00
8890;BME280;4481;43.406;24.454;2023-01-24T12:26:05;79591.13;;;-144.09;100.00
8890;BME280;4481;43.406;24.454;2023-01-24T12:28:38;79591.13;;;-144.09;100.00
8890;BME280;4481;43.406;24.454;2023-01-24T12:31:06;79595.31;;;-144.09;100.00
8890;BME280;4481;43.406;24.454;2023-01-24T12:33:37;79593.22;;;-144.09;100.00
8890;BME280;4481;43.406;24.454;2023-01-24T12:36:12;79603.69;;;-144.09;100.00
8890;BME280;4481;43.406;24.454;2023-01-24T12:38:43;79597.41;;;-144.09;100.00
8890;BME280;4481;43.406;24.454;2023-01-24T12:41:18;79566.03;;;-144.09;100.00
8890;BME280;4481;43.406;24.454;2023-01-24T12:43:53;79586.94;;;-144.09;100.00
8890;BME280;4481;43.406;24.454;2023-01-24T12:46:26;79599.50;;;-144.09;100.00
8890;BME280;4481;43.406;24.454;2023-01-24T12:49:01;79599.50;;;-144.09;100.00
8890;BME280;4481;43.406;24.454;2023-01-24T12:51:30;79601.59;;;-144.09;100.00
8890;BME280;4481;43.406;24.454;2023-01-24T12:54:02;79603.69;;;-144.09;100.00
8890;BME280;4481;43.406;24.454;2023-01-24T12:56:35;79628.78;;;-144.09;100.00
8890;BME280;4481;43.406;24.454;2023-01-24T12:59:07;79605.78;;;-144.09;100.00